Time;durP1;ratioP1;P1;durP2;ratioP2;P2;SDS_P1;SDS_P2;PMS_P1;PMS_P2;Temp;Humidity;BMP_temperature;BMP_pressure;BME280_temperature;BME280_humidity;BME280_pressure;Samples;Min_cycle;Max_cycle;Signal;HPM_P1;HPM_P2
2020/12/25 14:12:15;;;;;;;8.53;5.23;;;6.40;99.90;;;;;;4939857;23;20276;-84
2020/12/25 15:29:32;;;;;;;5.00;2.60;;;6.50;99.90;;;;;;4958740;29;20217;-87
2020/12/25 15:41:37;;;;;;;6.87;3.30;;;5.90;99.90;;;;;;4975334;29;20245;-85
2020/12/25 15:44:07;;;;;;;9.87;3.87;;;5.90;99.90;;;;;;4976780;29;20228;-85
2020/12/25 15:46:40;;;;;;;6.70;3.67;;;5.90;99.90;;;;;;4977308;29;20209;-85
2020/12/25 15:52:07;;;;;;;7.07;4.50;;;5.90;99.90;;;;;;4942002;29;20497;-85
2020/12/25 15:54:58;;;;;;;10.43;4.83;;;5.80;99.90;;;;;;4940413;29;20437;-86
2020/12/25 15:57:50;;;;;;;9.43;5.60;;;5.80;99.90;;;;;;4941832;29;20211;-85
2020/12/25 16:00:17;;;;;;;10.60;6.53;;;5.80;99.90;;;;;;4942216;29;20203;-85
2020/12/25 16:17:27;;;;;;;12.37;5.60;;;6.00;99.90;;;;;;5008740;23;20249;-86
2020/12/25 16:20:10;;;;;;;9.33;5.87;;;6.00;99.90;;;;;;4977365;29;20208;-85
2020/12/25 16:28:04;;;;;;;10.00;5.10;;;5.60;99.90;;;;;;5110792;23;20234;-85
2020/12/25 16:30:55;;;;;;;8.97;5.00;;;5.70;99.90;;;;;;4976997;29;20233;-85
2020/12/25 16:33:40;;;;;;;11.27;4.63;;;5.80;99.90;;;;;;4970982;29;20226;-85
2020/12/25 17:35:10;;;;;;;12.23;6.47;;;5.00;99.90;;;;;;4983073;23;20568;-84
2020/12/25 17:37:41;;;;;;;13.93;7.03;;;5.00;99.90;;;;;;4953673;29;20937;-85
2020/12/25 17:40:19;;;;;;;10.60;7.13;;;5.00;99.90;;;;;;4954824;29;20461;-85
2020/12/25 17:42:48;;;;;;;12.00;7.73;;;5.20;99.90;;;;;;4955408;29;20525;-85
2020/12/25 17:45:20;;;;;;;9.13;6.37;;;5.30;99.90;;;;;;4955867;29;20532;-85
2020/12/25 17:47:49;;;;;;;10.67;6.17;;;5.20;99.90;;;;;;4954210;29;20469;-85
2020/12/25 17:50:23;;;;;;;9.30;6.70;;;5.10;99.90;;;;;;4939597;29;20446;-85
2020/12/25 17:52:53;;;;;;;8.53;6.63;;;4.90;99.90;;;;;;4937317;29;20545;-85
2020/12/25 17:55:22;;;;;;;10.90;6.80;;;5.00;99.90;;;;;;4932210;29;20453;-85
2020/12/25 17:57:50;;;;;;;10.13;5.90;;;5.00;99.90;;;;;;4931988;29;20474;-85
2020/12/25 18:00:20;;;;;;;8.33;5.53;;;5.00;99.90;;;;;;4933288;29;20960;-85
2020/12/25 18:02:48;;;;;;;12.20;5.80;;;5.00;99.90;;;;;;4935506;29;20445;-85
2020/12/25 18:05:17;;;;;;;13.73;5.50;;;4.90;99.90;;;;;;4934337;29;20446;-85
2020/12/25 18:08:09;;;;;;;8.20;5.40;;;4.70;99.90;;;;;;4935124;29;20478;-85
2020/12/25 18:10:40;;;;;;;10.07;5.60;;;4.70;99.90;;;;;;4934185;29;20492;-85
2020/12/25 18:13:19;;;;;;;10.83;5.20;;;4.80;99.90;;;;;;4932853;29;20481;-86
2020/12/25 18:15:59;;;;;;;10.70;5.20;;;4.90;99.90;;;;;;4919734;29;20446;-85
2020/12/25 18:18:46;;;;;;;12.13;5.77;;;4.80;99.90;;;;;;4937197;29;20481;-86
2020/12/25 18:21:56;;;;;;;16.17;6.13;;;4.70;99.90;;;;;;4938772;29;20422;-85
2020/12/25 18:24:28;;;;;;;11.03;5.23;;;4.60;99.90;;;;;;4940240;29;20456;-85
2020/12/25 18:27:01;;;;;;;10.57;5.57;;;4.70;99.90;;;;;;4942033;29;20470;-85
2020/12/25 18:29:44;;;;;;;10.60;6.33;;;4.60;99.90;;;;;;4938697;29;20433;-85
2020/12/25 18:32:12;;;;;;;10.53;6.27;;;4.80;99.90;;;;;;4936170;29;20500;-85
2020/12/25 18:34:40;;;;;;;13.67;5.93;;;4.90;99.90;;;;;;4933453;29;20469;-85
2020/12/25 18:37:12;;;;;;;8.90;6.30;;;4.80;99.90;;;;;;4935127;29;20481;-85
2020/12/25 18:39:45;;;;;;;10.13;5.93;;;4.90;99.90;;;;;;4937051;29;20454;-85
2020/12/25 18:42:20;;;;;;;10.63;5.80;;;4.60;99.90;;;;;;4939410;29;20539;-85
2020/12/25 18:45:02;;;;;;;15.07;8.07;;;4.70;99.90;;;;;;4940328;29;20445;-85
2020/12/25 18:47:54;;;;;;;11.67;7.20;;;4.70;99.90;;;;;;4940111;29;20489;-85
2020/12/25 18:50:21;;;;;;;12.70;6.43;;;4.60;99.90;;;;;;4930316;29;20441;-85
2020/12/25 18:52:48;;;;;;;11.03;6.33;;;4.80;99.90;;;;;;4935518;29;20481;-85
2020/12/25 18:55:18;;;;;;;9.97;6.00;;;4.90;99.90;;;;;;4934200;29;20461;-85
2020/12/25 18:57:52;;;;;;;10.27;5.60;;;5.00;99.90;;;;;;4969012;23;20480;-86
2020/12/25 19:00:21;;;;;;;15.63;6.68;;;4.80;99.90;;;;;;4957551;29;20446;-85
2020/12/25 19:03:07;;;;;;;12.03;6.70;;;4.80;99.90;;;;;;5051514;23;20237;-87
2020/12/25 19:06:02;;;;;;;14.80;7.37;;;4.70;99.90;;;;;;5352820;23;20474;-87
2020/12/25 20:03:53;;;;;;;14.70;8.37;;;4.40;99.90;;;;;;5071434;23;20474;-85
2020/12/25 20:06:53;;;;;;;16.27;10.10;;;4.30;99.90;;;;;;4995516;28;20474;-86
2020/12/25 20:12:33;;;;;;;20.40;10.73;;;4.10;99.90;;;;;;4881804;29;20593;-85
2020/12/25 21:21:08;;;;;;;11.27;8.03;;;3.90;99.90;;;;;;3225061;23;20646;31
2020/12/25 22:49:43;;;;;;;12.23;8.83;;;4.50;99.90;;;;;;5039449;23;20501;-86
2020/12/25 22:52:33;;;;;;;16.50;8.40;;;4.50;99.90;;;;;;4979695;28;20239;-85
2020/12/25 23:04:07;;;;;;;11.10;5.70;;;4.50;99.90;;;;;;4978961;29;20433;-86
2020/12/25 23:13:26;;;;;;;10.00;4.47;;;4.50;99.90;;;;;;4975424;28;20577;-86
2020/12/25 23:15:58;;;;;;;5.50;4.50;;;4.40;99.90;;;;;;4980613;29;20455;-86
2020/12/25 23:18:39;;;;;;;9.87;4.33;;;4.50;99.90;;;;;;4980661;28;20476;-86
2020/12/25 23:24:43;;;;;;;8.27;4.30;;;4.40;99.90;;;;;;4980552;29;20432;-86
2020/12/25 23:43:28;;;;;;;7.33;4.80;;;4.50;99.90;;;;;;5008864;23;20486;-86
2020/12/25 23:46:08;;;;;;;6.53;4.23;;;4.50;99.90;;;;;;4977760;29;21030;-85
